O'Brien, TX (79539)

5:17 AM CST on January 19, 2018 (GMT -0600)
MKXST2 | | Change Station
Active Advisory: Fire Weather Watch

Elev 1469 ft 33.45 °N, 99.86 °W | Updated 11 minutes ago

Partly Cloudy
Partly Cloudy
26.0 °F
Feels Like 16 °F
N
10.0
Wind Variable Wind from South
Gusts 12.0 mph

Today
High -- | Low -- °F
--% Chance of Precip.
Yesterday
High -- | Low -- °F
Precip. -- in
Pressure 30.13 in
Visibility 10.0 miles
Clouds Clear
Windchill 16 °F
Dew Point 15 °F
Humidity 64%
Rainfall 0.00 in
Snow Depth Not available.
7:42 AM 5:58 PM
Waxing Crescent, 5% visible
METAR KDYS 191056Z AUTO 19013KT 10SM CLR 02/M06 A3012 RMK AO2 SLP202 T00171059 $
Pressure 30.13 in
Visibility 10.0 miles
Clouds Clear
Windchill 16 °F
Dew Point 15 °F
Humidity 64%
Rainfall 0.00 in
Snow Depth Not available.
7:42 AM 5:58 PM
Waxing Crescent, 5% visible
METAR KDYS 191056Z AUTO 19013KT 10SM CLR 02/M06 A3012 RMK AO2 SLP202 T00171059 $

Get Your Daily Forecast Email!

Thanks for signing up!

Be on the lookout for a verification email in your inbox.

You'll start receiving severe weather alerts in your inbox..

×

10-Day Weather Forecast

Almanac

Astronomy

Jan. 19, 2018 Rise Set
Actual Time
Civil Twilight
Nautical Twilight
Astronomical Twilight
Moon
Length of Visible Light
Length of Day
Tomorrow will be .
, % of the Moon is Illuminated

Today's Extremes

State Highs State Lows

Community

WunderPhotos

Category 6

Welcome to Category 6. This is the collective home for Weather Underground's featured writeups by Dr. Jeff Masters (right), Bob Henson (left), Chris Burt, and other regular contributors.

Nearby

Air Quality

  Air Quality AQ Index Pollutant
Not available.

Snow Depth

Station Depth Elevation

Earthquake Activity

City Distance Mag. Time & Date
Minimum magnitude displayed is 2.5.

Coastal Water Temperatures

Place Temperature

Stations

Nearby Weather Stations

Station Location Temp. Windchill Dew Point Humidity Wind Precip. Elev Updated Type
                   

Watches & Warnings

Fire Weather Watch
Issued: 3:26 AM CST Jan. 19, 2018 – National Weather Service

... Fire Weather Watch in effect from late Sunday morning through
late Sunday afternoon for a large portion of west central Texas
west of a Brownwood to Sonora line for gusty west winds and
humidity values in the 15 to 20 percent range.

The National Weather Service in San Angelo has issued a Fire
Weather Watch, which is in effect from Sunday morning through
Sunday evening.

* Wind... west winds increasing to 20 to 25 mph with higher gusts
at the 20 foot level by afternoon

* humidity... 15 to 20 percent

* impacts... any fires that develop can spread rapidly. Outdoor
burning is discouraged.

Precautionary/preparedness actions...

A Fire Weather Watch means that critical fire weather conditions
are forecast to occur. Listen for later forecasts and possible
red flag warnings.